Briefing drone pour Saint-vallier

Rechercher une autre localisation

Conditions de vol :


Nous sommes le : Dimanche 07 mars 2021
Il est 15:10 UTC (16:10 LT)

Lever de soleil : 05:40 UTC (06:40 LT)
Coucher de soleil : 18:02 UTC (19:02 LT)

Météo

L'essentiel des conditions de vol

VIGILANCE MÉTÉO FRANCE - Drôme (26)
Pas de vigilances particulieres
METAR de LFLU
LFLU 071500Z AUTO 18004KT 140V200 9999 BKN082 OVC100 13/06 Q1018

Date d'émission: 07/03/2021
Heure d'émission: 15:00 UTC
Vent: 180° (variable du 140° au 200°) pour 4 KT (7 km/h)
Visibilité horizontale: > 10 km
Plafond :
- Nuages morcelés à 8200ft (2499m)
- Couvert à 10000ft (3048m)
Température: 13 °C
Point de rosée: 6 °C
Humidité: 62%
Pression (QNH): 1018 hPa
Prévision 24h pour Valence (17 km)
Vent : 4° pour 6 KT (22 km/h)
Temperature Maxi: 12 °C
Temperature Min: 12 °C
Humidité : 60%
Condition : Peu nuageux


WEBCAM POUR SAINT-VALLIER

Réglementation

Voler en sécurité

CARTES AERONAUTIQUE 1/500.000
CARTES VAC (LFLU)
SUP AIP




Chargement des AIP...
NOTAM (SAINT-VALLIER + Terrain à proximité / FIR )




Chargement des NOTAMS...
CONTACT PREFECTURE 26
Drôme (26) : ddt-sdsr@drome.gouv.fr


Avertissement : Les données mises à disposition sont indicatives. Oxygène Drone ne pourra être tenu responsable de dégâts causés aux biens et aux personnes.